Time;durP1;ratioP1;P1;durP2;ratioP2;P2;SDS_P1;SDS_P2;PMS_P1;PMS_P2;Temp;Humidity;BMP_temperature;BMP_pressure;BME280_temperature;BME280_humidity;BME280_pressure;Samples;Min_cycle;Max_cycle;Signal;HPM_P1;HPM_P2
2021/11/22 00:01:29;;;;;;;10.50;9.40;;;7.10;1.00;;;;;;5044419;28;20191;-85
2021/11/22 00:03:55;;;;;;;11.10;9.10;;;7.10;1.00;;;;;;5051941;28;20187;-85
2021/11/22 00:06:21;;;;;;;9.90;8.93;;;;;;;;;;5042865;28;20283;-85
2021/11/22 00:08:47;;;;;;;11.63;10.30;;;;;;;;;;5047690;28;20648;-85
2021/11/22 00:11:13;;;;;;;11.90;8.97;;;7.30;1.00;;;;;;5051726;28;20221;-85
2021/11/22 00:13:38;;;;;;;13.43;10.27;;;7.30;1.00;;;;;;5043685;28;20205;-85
2021/11/22 00:16:05;;;;;;;11.70;9.93;;;;;;;;;;5049710;28;20191;-85
2021/11/22 00:18:31;;;;;;;10.43;9.33;;;;;;;;;;5054067;28;20198;-85
2021/11/22 00:20:56;;;;;;;10.53;9.23;;;7.40;1.00;;;;;;5046177;28;20204;-85
2021/11/22 00:23:22;;;;;;;12.80;9.97;;;8.70;1.00;;;;;;5041268;28;20598;-85
2021/11/22 00:25:48;;;;;;;13.73;10.30;;;7.50;1.00;;;;;;5041929;28;20202;-85
2021/11/22 00:28:14;;;;;;;12.83;9.80;;;9.90;1.00;;;;;;5050442;28;20214;-85
2021/11/22 00:30:40;;;;;;;12.60;9.93;;;7.30;1.00;;;;;;5053758;28;20198;-85
2021/11/22 00:33:08;;;;;;;13.23;10.07;;;7.30;1.00;;;;;;5052034;28;20203;-85
2021/11/22 00:35:34;;;;;;;10.33;9.27;;;;;;;;;;5059108;28;20194;-85
2021/11/22 00:38:04;;;;;;;10.90;9.73;;;7.30;1.00;;;;;;5044177;28;20257;-85
2021/11/22 00:40:31;;;;;;;13.40;10.27;;;7.30;1.00;;;;;;5044280;28;20261;-84
2021/11/22 00:42:57;;;;;;;16.93;11.50;;;;;;;;;;5052691;28;20222;-85
2021/11/22 00:45:23;;;;;;;10.87;9.77;;;;;;;;;;5052006;28;20646;-85
2021/11/22 00:47:49;;;;;;;11.30;9.57;;;;;;;;;;5053881;28;20185;-85
2021/11/22 00:50:15;;;;;;;12.00;10.57;;;7.30;1.00;;;;;;5047485;28;20190;-85
2021/11/22 00:52:41;;;;;;;11.50;9.47;;;7.20;1.00;;;;;;5044680;28;20724;-85
2021/11/22 00:55:07;;;;;;;12.53;9.53;;;7.30;1.00;;;;;;5044307;28;20187;-85
2021/11/22 00:57:33;;;;;;;10.87;9.67;;;7.20;1.00;;;;;;5045354;28;20245;-85
2021/11/22 00:59:59;;;;;;;11.33;9.73;;;7.20;1.00;;;;;;5045608;28;20700;-85
2021/11/22 01:02:25;;;;;;;13.10;10.20;;;7.40;1.00;;;;;;5050036;28;20210;-85
2021/11/22 01:04:50;;;;;;;10.17;9.03;;;7.10;1.00;;;;;;5053014;28;20207;-84
2021/11/22 01:07:17;;;;;;;12.27;9.63;;;;;;;;;;5050760;28;20221;-85
2021/11/22 01:09:43;;;;;;;12.90;9.27;;;7.00;1.00;;;;;;5045051;28;20719;-85
2021/11/22 01:12:09;;;;;;;13.40;8.13;;;7.10;1.00;;;;;;5055476;28;20268;-84
2021/11/22 01:14:36;;;;;;;8.13;7.20;;;7.10;1.00;;;;;;5051289;28;20285;-84
2021/11/22 01:17:02;;;;;;;9.20;8.30;;;;;;;;;;5050454;28;20189;-84
2021/11/22 01:19:28;;;;;;;8.87;7.77;;;7.10;1.00;;;;;;5050058;28;20248;-84
2021/11/22 01:21:53;;;;;;;8.30;7.50;;;7.10;1.00;;;;;;5045596;28;20206;-84
2021/11/22 01:24:19;;;;;;;9.80;6.97;;;;;;;;;;5061140;28;20242;-84
2021/11/22 01:26:45;;;;;;;10.30;6.57;;;7.10;1.00;;;;;;5051722;28;20214;-85
2021/11/22 01:29:12;;;;;;;9.93;6.17;;;7.00;1.00;;;;;;5055381;28;20191;-85
2021/11/22 01:31:38;;;;;;;8.30;6.43;;;;;;;;;;5048030;28;20579;-85
2021/11/22 01:34:04;;;;;;;7.03;5.13;;;7.00;1.00;;;;;;5043441;28;20994;-85
2021/11/22 01:36:31;;;;;;;6.40;4.53;;;9.90;1.00;;;;;;5052330;28;20561;-85
2021/11/22 01:38:57;;;;;;;6.30;4.47;;;6.90;1.00;;;;;;5056322;28;20191;-85
2021/11/22 01:41:23;;;;;;;6.10;4.30;;;7.00;1.00;;;;;;5060154;28;20213;-85
2021/11/22 01:43:49;;;;;;;3.70;3.30;;;;;;;;;;5042206;28;20776;-85
2021/11/22 01:46:21;;;;;;;5.87;2.80;;;6.90;1.00;;;;;;5050352;28;20267;-85
2021/11/22 01:48:48;;;;;;;4.03;2.60;;;6.90;1.00;;;;;;5052032;28;20302;-85
2021/11/22 01:51:15;;;;;;;7.30;2.63;;;6.90;1.00;;;;;;5047980;28;20205;-86
2021/11/22 01:53:41;;;;;;;3.23;2.33;;;9.30;1.00;;;;;;5050344;28;20194;-85
2021/11/22 01:56:07;;;;;;;4.27;2.50;;;;;;;;;;5049927;28;20218;-85
2021/11/22 01:58:32;;;;;;;2.20;2.00;;;6.90;1.00;;;;;;5053403;28;20533;-85
2021/11/22 02:00:59;;;;;;;3.83;2.13;;;6.90;1.00;;;;;;5059711;28;20185;-85
2021/11/22 02:03:25;;;;;;;2.50;1.93;;;6.80;1.00;;;;;;5052856;28;20267;-85
2021/11/22 02:05:54;;;;;;;3.90;2.33;;;6.90;1.00;;;;;;5051343;28;20214;-85
2021/11/22 02:08:21;;;;;;;2.80;1.80;;;6.90;1.00;;;;;;5054446;28;20187;-85
2021/11/22 02:10:48;;;;;;;4.90;1.87;;;6.90;1.00;;;;;;5054542;28;20205;-86
2021/11/22 02:13:15;;;;;;;3.80;2.13;;;6.90;1.00;;;;;;5050331;28;20235;-86
2021/11/22 02:15:41;;;;;;;3.20;1.97;;;;;;;;;;5049028;28;20197;-85
2021/11/22 02:18:07;;;;;;;2.77;1.80;;;6.90;1.00;;;;;;5064816;28;20194;-85
2021/11/22 02:20:33;;;;;;;5.07;2.30;;;6.90;1.00;;;;;;5058145;28;20187;-87
2021/11/22 02:23:05;;;;;;;3.20;1.87;;;6.90;1.00;;;;;;5046998;28;20216;-85
2021/11/22 02:25:33;;;;;;;2.50;2.10;;;6.80;1.00;;;;;;5049952;28;20254;-84
2021/11/22 02:28:00;;;;;;;2.50;2.03;;;6.90;1.00;;;;;;5040426;28;20193;-84
2021/11/22 02:30:29;;;;;;;2.17;1.97;;;6.80;1.00;;;;;;5048097;28;20187;-84
2021/11/22 02:33:09;;;;;;;8.57;2.53;;;6.80;1.00;;;;;;5056544;28;20286;-85
2021/11/22 02:35:39;;;;;;;5.77;2.30;;;7.40;1.00;;;;;;5055366;28;20231;-84
2021/11/22 02:38:04;;;;;;;2.67;2.00;;;6.80;1.00;;;;;;5057938;28;20202;-84
2021/11/22 02:40:30;;;;;;;3.17;1.70;;;;;;;;;;5055112;28;20191;-84
2021/11/22 02:42:57;;;;;;;2.10;1.63;;;6.90;1.00;;;;;;5070519;28;20293;-84
2021/11/22 02:45:23;;;;;;;4.37;1.73;;;;;;;;;;5048721;28;20542;-84
2021/11/22 02:47:50;;;;;;;3.33;2.53;;;6.80;1.00;;;;;;5053595;28;20186;-84
2021/11/22 02:50:19;;;;;;;2.83;1.90;;;6.90;1.00;;;;;;5047718;28;20205;-84
2021/11/22 02:52:46;;;;;;;4.20;1.83;;;6.90;1.00;;;;;;5053744;28;20195;-85
2021/11/22 02:55:14;;;;;;;5.13;1.80;;;6.80;1.00;;;;;;5053338;28;20194;-84
2021/11/22 02:57:40;;;;;;;2.17;1.73;;;6.80;1.00;;;;;;5052131;28;20225;-84
2021/11/22 03:00:17;;;;;;;4.87;2.10;;;6.90;1.00;;;;;;5051680;28;20209;-85
2021/11/22 03:02:43;;;;;;;2.93;1.90;;;6.90;1.00;;;;;;5051546;28;20302;-84
2021/11/22 03:05:09;;;;;;;16.30;4.43;;;;;;;;;;5052875;28;20243;-84
2021/11/22 03:07:35;;;;;;;1.80;1.60;;;6.90;1.00;;;;;;5050406;28;20222;-84
2021/11/22 03:10:03;;;;;;;2.17;1.93;;;6.90;1.00;;;;;;5055426;28;20676;-84
2021/11/22 03:12:29;;;;;;;6.87;2.03;;;;;;;;;;5057020;28;20240;-85
2021/11/22 03:14:54;;;;;;;18.50;6.13;;;6.90;1.00;;;;;;5056385;28;20240;-85
2021/11/22 03:17:20;;;;;;;4.93;1.97;;;6.90;1.00;;;;;;5052267;28;20194;-84
2021/11/22 03:19:46;;;;;;;7.17;2.03;;;6.90;1.00;;;;;;5052735;28;20190;-85
2021/11/22 03:22:11;;;;;;;3.10;2.20;;;6.90;1.00;;;;;;5048973;28;20218;-85
2021/11/22 03:24:37;;;;;;;1.80;1.63;;;6.90;1.00;;;;;;5061343;28;20190;-84
2021/11/22 03:27:03;;;;;;;7.07;1.77;;;6.90;1.00;;;;;;5051755;28;20225;-85
2021/11/22 03:29:29;;;;;;;3.23;1.87;;;6.90;1.00;;;;;;5051042;28;20213;-85
2021/11/22 03:31:56;;;;;;;3.60;1.50;;;6.90;1.00;;;;;;5052400;28;20198;-85
2021/11/22 03:34:22;;;;;;;2.50;1.80;;;;;;;;;;5062512;28;20190;-85
2021/11/22 03:36:48;;;;;;;4.30;1.60;;;6.90;1.00;;;;;;5048560;28;20190;-85
2021/11/22 03:39:24;;;;;;;5.83;2.13;;;6.90;1.00;;;;;;5052428;28;20233;-84
2021/11/22 03:41:51;;;;;;;2.47;1.63;;;;;;;;;;5053479;28;20213;-84
2021/11/22 03:44:17;;;;;;;2.17;1.70;;;;;;;;;;5051443;28;20678;-84
2021/11/22 03:46:49;;;;;;;3.40;1.97;;;6.90;1.00;;;;;;5052746;28;20258;-84
2021/11/22 03:49:16;;;;;;;2.30;1.67;;;6.90;1.00;;;;;;5054258;28;20193;-84
2021/11/22 03:51:42;;;;;;;4.83;1.90;;;6.90;1.00;;;;;;5053806;28;20194;-84
2021/11/22 03:54:10;;;;;;;3.27;1.73;;;6.90;1.00;;;;;;5054516;28;20183;-84
2021/11/22 03:56:37;;;;;;;6.20;1.50;;;6.90;1.00;;;;;;5051222;28;20187;-85
2021/11/22 03:59:03;;;;;;;1.17;0.90;;;6.90;1.00;;;;;;5056894;28;20191;-85
2021/11/22 04:01:29;;;;;;;4.30;1.50;;;;;;;;;;5054827;28;20207;-85
2021/11/22 04:03:55;;;;;;;6.40;2.07;;;6.90;1.00;;;;;;5055325;28;20293;-84
2021/11/22 04:06:20;;;;;;;5.00;2.57;;;6.90;1.00;;;;;;5052791;28;20249;-84
2021/11/22 04:08:46;;;;;;;5.00;2.13;;;7.30;1.00;;;;;;5053317;28;20200;-84
2021/11/22 04:11:12;;;;;;;3.13;2.10;;;6.90;1.00;;;;;;5058483;28;20190;-84
2021/11/22 04:13:38;;;;;;;4.40;2.40;;;6.90;1.00;;;;;;5049982;28;20283;-84
2021/11/22 04:16:04;;;;;;;6.80;2.73;;;6.90;1.00;;;;;;5045913;28;20195;-85
2021/11/22 04:18:31;;;;;;;2.80;2.20;;;;;;;;;;5045394;28;20562;-85
2021/11/22 04:20:57;;;;;;;3.57;2.57;;;6.90;1.00;;;;;;5051198;28;20520;-85
2021/11/22 04:23:24;;;;;;;3.00;2.30;;;;;;;;;;5055139;28;20214;-85
2021/11/22 04:25:50;;;;;;;6.27;2.40;;;6.80;1.00;;;;;;5052687;28;20677;-85
2021/11/22 04:28:16;;;;;;;5.63;3.10;;;;;;;;;;5050100;28;20189;-85
2021/11/22 04:30:42;;;;;;;4.00;2.60;;;6.80;1.00;;;;;;5048578;28;20202;-85
2021/11/22 04:33:09;;;;;;;3.93;2.30;;;6.80;1.00;;;;;;5045999;28;20213;-85
2021/11/22 04:35:35;;;;;;;4.43;2.67;;;;;;;;;;5049404;28;20225;-85
2021/11/22 04:38:01;;;;;;;4.57;2.73;;;6.80;1.00;;;;;;5047732;28;20199;-85
2021/11/22 04:40:27;;;;;;;5.17;2.53;;;;;;;;;;5051380;28;20272;-85
2021/11/22 04:42:53;;;;;;;3.90;2.27;;;;;;;;;;5044577;28;20218;-84
2021/11/22 04:45:21;;;;;;;4.77;2.73;;;6.70;1.00;;;;;;5049271;28;20275;-84
2021/11/22 04:47:48;;;;;;;3.23;2.53;;;6.70;1.00;;;;;;5048910;28;20191;-84
2021/11/22 04:50:15;;;;;;;3.83;2.40;;;6.70;1.00;;;;;;5054610;28;20246;-84
2021/11/22 04:52:44;;;;;;;2.47;2.27;;;6.70;1.00;;;;;;5048062;28;20194;-84
2021/11/22 04:55:11;;;;;;;2.77;2.10;;;6.50;1.00;;;;;;5046094;28;20269;-84
2021/11/22 04:57:37;;;;;;;7.30;2.73;;;6.60;1.00;;;;;;5050520;28;20218;-86
2021/11/22 05:00:04;;;;;;;4.27;2.00;;;6.60;1.00;;;;;;5039463;28;20279;-85
2021/11/22 05:02:30;;;;;;;3.00;2.63;;;;;;;;;;5058467;28;20256;-85
2021/11/22 05:04:56;;;;;;;2.63;2.30;;;6.50;1.00;;;;;;5055859;28;20195;-85
2021/11/22 05:07:22;;;;;;;5.30;2.20;;;6.50;1.00;;;;;;5050024;28;20191;-85
2021/11/22 05:09:48;;;;;;;2.60;2.33;;;;;;;;;;5047033;28;20205;-85
2021/11/22 05:12:15;;;;;;;5.60;2.40;;;6.40;1.00;;;;;;5052101;28;20207;-85
2021/11/22 05:14:40;;;;;;;6.40;2.50;;;6.40;1.00;;;;;;5050569;28;20209;-86
2021/11/22 05:17:06;;;;;;;3.70;2.57;;;;;;;;;;5051226;28;20582;-86
2021/11/22 05:19:32;;;;;;;2.43;2.10;;;6.40;1.00;;;;;;5042100;28;20205;-85
2021/11/22 05:22:00;;;;;;;7.17;3.10;;;8.70;1.00;;;;;;5046824;28;20670;-85
2021/11/22 05:24:27;;;;;;;4.40;2.53;;;6.30;1.00;;;;;;5048089;28;20191;-85
2021/11/22 05:26:53;;;;;;;2.50;2.10;;;6.20;1.00;;;;;;5042149;28;20206;-85
2021/11/22 05:29:19;;;;;;;5.77;2.47;;;;;;;;;;5056266;28;20196;-85
2021/11/22 05:31:45;;;;;;;4.67;2.50;;;6.20;1.00;;;;;;5052587;28;20218;-86
2021/11/22 05:34:10;;;;;;;3.17;2.17;;;6.10;1.00;;;;;;5054121;28;20636;-86
2021/11/22 05:36:36;;;;;;;4.13;3.17;;;;;;;;;;5054331;28;20215;-86
2021/11/22 05:39:05;;;;;;;2.63;2.30;;;6.00;1.00;;;;;;5056194;28;20566;-85
2021/11/22 05:41:31;;;;;;;3.73;2.87;;;6.00;1.00;;;;;;5046560;28;20239;-85
2021/11/22 05:43:57;;;;;;;5.07;2.30;;;5.90;1.00;;;;;;5037828;28;20220;-86
2021/11/22 05:46:23;;;;;;;3.97;2.60;;;;;;;;;;5048682;28;20193;-86
2021/11/22 05:48:48;;;;;;;2.70;2.50;;;5.90;1.00;;;;;;5052792;28;20193;-86
2021/11/22 05:51:15;;;;;;;4.40;2.30;;;;;;;;;;5041882;28;20249;-83
2021/11/22 05:53:43;;;;;;;3.77;2.50;;;;;;;;;;5048090;28;20270;-86
2021/11/22 05:56:09;;;;;;;4.70;2.70;;;5.90;1.00;;;;;;5055261;28;20197;-84
2021/11/22 05:58:36;;;;;;;5.17;2.30;;;6.00;1.00;;;;;;5042015;28;20212;-84
2021/11/22 06:01:03;;;;;;;3.37;2.50;;;6.00;1.00;;;;;;5044925;28;20277;-84
2021/11/22 06:03:30;;;;;;;6.10;2.87;;;;;;;;;;5041323;28;20213;-84
2021/11/22 06:05:56;;;;;;;5.90;2.67;;;;;;;;;;5049498;28;20260;-87
2021/11/22 06:08:22;;;;;;;3.67;2.77;;;6.00;1.00;;;;;;5058181;28;20190;-85
2021/11/22 06:10:51;;;;;;;3.07;2.67;;;6.00;1.00;;;;;;5059914;28;20188;-85
2021/11/22 06:13:18;;;;;;;2.77;2.47;;;6.00;1.00;;;;;;5057607;28;20297;-85
2021/11/22 06:15:45;;;;;;;3.67;2.70;;;7.50;1.00;;;;;;5057348;28;20252;-84
2021/11/22 06:18:11;;;;;;;5.27;2.80;;;6.10;1.00;;;;;;5049697;28;20197;-85
2021/11/22 06:20:37;;;;;;;4.37;2.93;;;6.20;1.00;;;;;;5051270;28;20225;-85
2021/11/22 06:23:03;;;;;;;3.50;2.33;;;;;;;;;;5049734;28;20292;-85
2021/11/22 06:25:29;;;;;;;4.30;2.90;;;6.10;1.00;;;;;;5054684;28;20198;-85
2021/11/22 06:27:55;;;;;;;6.53;2.63;;;6.10;1.00;;;;;;5053344;28;20203;-85
2021/11/22 06:30:21;;;;;;;4.07;2.97;;;6.10;1.00;;;;;;5056804;28;20270;-85
2021/11/22 06:32:48;;;;;;;4.43;2.80;;;6.10;1.00;;;;;;5059268;28;20232;-85
2021/11/22 06:35:17;;;;;;;5.13;3.20;;;6.10;1.00;;;;;;5054444;28;20188;-85
2021/11/22 06:37:42;;;;;;;3.37;3.07;;;8.40;1.00;;;;;;5061527;28;20553;-85
2021/11/22 06:40:09;;;;;;;3.60;3.20;;;6.10;1.00;;;;;;5055316;28;20213;-84
2021/11/22 06:42:35;;;;;;;92.10;10.60;;;6.10;1.00;;;;;;5055161;28;20210;-85
2021/11/22 06:45:01;;;;;;;3.50;3.20;;;6.10;1.00;;;;;;5051309;28;20814;-85
2021/11/22 06:47:28;;;;;;;4.43;3.63;;;;;;;;;;5050071;28;20232;-85
2021/11/22 06:49:53;;;;;;;4.60;3.80;;;6.00;1.00;;;;;;5053384;28;20195;-86
2021/11/22 06:52:21;;;;;;;7.23;3.13;;;6.00;1.00;;;;;;5058501;28;20261;-86
2021/11/22 06:54:48;;;;;;;3.43;3.00;;;5.90;1.00;;;;;;5051019;28;20198;-85
2021/11/22 06:57:15;;;;;;;7.00;3.90;;;;;;;;;;5051087;28;20197;-86
2021/11/22 06:59:42;;;;;;;4.10;3.47;;;5.90;1.00;;;;;;5052606;28;20677;-86
2021/11/22 07:02:13;;;;;;;9.77;4.27;;;;;;;;;;5049909;28;20210;-86
2021/11/22 07:04:39;;;;;;;3.37;3.07;;;;;;;;;;5056018;28;20194;-85
2021/11/22 07:07:05;;;;;;;4.57;3.23;;;5.80;1.00;;;;;;5051903;28;20204;-81
2021/11/22 07:09:31;;;;;;;3.60;3.30;;;;;;;;;;5049791;28;20307;-82
2021/11/22 07:11:57;;;;;;;4.10;3.63;;;;;;;;;;5049805;28;20223;-81
2021/11/22 07:14:23;;;;;;;3.83;3.33;;;5.80;1.00;;;;;;5043009;28;20200;-83
2021/11/22 07:16:50;;;;;;;7.47;3.80;;;5.80;1.00;;;;;;5059952;28;20250;-83
2021/11/22 07:19:16;;;;;;;5.47;3.77;;;5.80;1.00;;;;;;5048548;28;20277;-84
2021/11/22 07:21:41;;;;;;;4.03;3.63;;;5.80;1.00;;;;;;5044635;28;20230;-84
2021/11/22 07:24:07;;;;;;;4.43;4.03;;;5.90;1.00;;;;;;5050948;28;20196;-86
2021/11/22 07:26:33;;;;;;;4.38;3.97;;;5.90;1.00;;;;;;5050949;28;20463;-79
2021/11/22 07:28:59;;;;;;;4.37;3.73;;;5.80;1.00;;;;;;5056728;28;20234;-78
2021/11/22 07:31:25;;;;;;;3.60;3.30;;;6.80;1.00;;;;;;5046683;28;20187;-79
2021/11/22 07:33:50;;;;;;;3.30;3.00;;;5.80;1.00;;;;;;5044385;28;20228;-78
2021/11/22 07:36:16;;;;;;;3.33;3.03;;;5.90;1.00;;;;;;5041768;28;20201;-78
2021/11/22 07:38:42;;;;;;;4.13;3.53;;;5.90;1.00;;;;;;5039885;28;20213;-80
2021/11/22 07:41:08;;;;;;;5.33;4.03;;;6.00;1.00;;;;;;5050787;28;20215;-80
2021/11/22 07:43:33;;;;;;;5.63;4.00;;;6.00;1.00;;;;;;5052044;28;20286;-80
2021/11/22 07:45:59;;;;;;;5.53;4.10;;;;;;;;;;5048921;28;20195;-80
2021/11/22 07:48:27;;;;;;;5.47;3.90;;;6.00;1.00;;;;;;5049129;28;20187;-84
2021/11/22 07:50:53;;;;;;;4.27;3.20;;;6.10;1.00;;;;;;5043189;28;20189;-82
2021/11/22 07:53:18;;;;;;;6.23;4.50;;;6.10;1.00;;;;;;5052342;28;20268;-83
2021/11/22 07:55:46;;;;;;;3.00;2.80;;;;;;;;;;5048174;28;20193;-82
2021/11/22 07:58:12;;;;;;;4.27;3.93;;;6.20;1.00;;;;;;5058450;28;20179;-81
2021/11/22 08:00:38;;;;;;;4.77;3.97;;;;;;;;;;5048740;28;20221;-79
2021/11/22 08:03:03;;;;;;;3.23;2.60;;;6.20;1.00;;;;;;5050150;28;20197;-80
2021/11/22 08:05:31;;;;;;;4.00;3.60;;;6.30;1.00;;;;;;5049104;28;20206;-81
2021/11/22 08:07:58;;;;;;;4.30;3.90;;;6.30;1.00;;;;;;5053122;28;20220;-90
2021/11/22 08:10:27;;;;;;;4.00;3.37;;;6.30;1.00;;;;;;5049167;28;20210;-80
2021/11/22 08:12:58;;;;;;;3.10;2.90;;;6.40;1.00;;;;;;5049020;28;20300;-78
2021/11/22 08:15:25;;;;;;;4.03;2.83;;;6.40;1.00;;;;;;5049165;28;20224;-81
2021/11/22 08:17:52;;;;;;;1243.40;87.90;;;6.40;1.00;;;;;;5058417;28;20634;-80
2021/11/22 08:20:20;;;;;;;2.90;2.60;;;6.40;1.00;;;;;;5051482;28;20230;-80
2021/11/22 08:22:47;;;;;;;3.17;2.63;;;6.50;1.00;;;;;;5051233;28;20216;-78
2021/11/22 08:25:14;;;;;;;42.53;9.97;;;;;;;;;;5048356;28;20615;-78
2021/11/22 08:27:40;;;;;;;2.80;2.50;;;6.50;1.00;;;;;;5052567;28;20198;-79
2021/11/22 08:30:15;;;;;;;4.40;3.10;;;6.50;1.00;;;;;;5048866;28;20214;-80
2021/11/22 08:32:43;;;;;;;2.70;2.50;;;6.60;1.00;;;;;;5052273;28;20188;-80
2021/11/22 08:35:09;;;;;;;384.33;31.80;;;6.60;1.00;;;;;;5048816;28;20195;-80
2021/11/22 08:37:35;;;;;;;3.07;2.77;;;6.60;1.00;;;;;;5046233;28;20236;-78
2021/11/22 08:40:01;;;;;;;2.00;1.90;;;6.60;1.00;;;;;;5038329;28;20200;-80
2021/11/22 08:42:27;;;;;;;5.60;2.73;;;6.60;1.00;;;;;;5045351;28;20213;-80
2021/11/22 08:44:53;;;;;;;2.57;2.33;;;6.60;1.00;;;;;;5047081;28;20266;-79
2021/11/22 08:47:19;;;;;;;1.87;1.77;;;6.70;1.00;;;;;;5048692;28;20198;-79
2021/11/22 08:49:45;;;;;;;70.77;6.13;;;6.70;1.00;;;;;;5050874;28;20210;-79
2021/11/22 08:52:11;;;;;;;2.60;2.40;;;6.80;1.00;;;;;;5049037;28;20604;-80
2021/11/22 08:54:37;;;;;;;2.53;2.33;;;6.80;1.00;;;;;;5044821;28;20270;-79
2021/11/22 08:57:06;;;;;;;2.77;2.23;;;6.80;1.00;;;;;;5054183;28;20634;-79
2021/11/22 08:59:32;;;;;;;2.40;2.20;;;6.90;1.00;;;;;;5046113;28;20277;-79
2021/11/22 09:01:58;;;;;;;2.27;2.10;;;;;;;;;;5040098;28;20554;-78
2021/11/22 09:04:25;;;;;;;2.70;2.47;;;7.00;1.00;;;;;;5040843;28;20746;-78
2021/11/22 09:06:51;;;;;;;1.57;1.47;;;7.00;1.00;;;;;;5044156;28;20185;-78
2021/11/22 09:09:17;;;;;;;2.27;2.17;;;7.00;1.00;;;;;;5045479;28;20189;-79
2021/11/22 09:11:45;;;;;;;2.10;2.00;;;7.20;1.00;;;;;;5045042;28;20214;-78
2021/11/22 09:14:12;;;;;;;2.23;1.97;;;5.80;1.00;;;;;;5044518;28;20274;-78
2021/11/22 09:16:38;;;;;;;2.47;2.27;;;8.00;1.00;;;;;;5053970;28;20191;-80
2021/11/22 09:19:04;;;;;;;2.47;2.27;;;7.30;1.00;;;;;;5043818;28;20261;-78
2021/11/22 09:21:30;;;;;;;3.30;3.00;;;7.30;1.00;;;;;;5046566;28;20832;-78
2021/11/22 09:23:56;;;;;;;2.33;2.13;;;7.40;1.00;;;;;;5043043;28;20360;-79
2021/11/22 09:26:22;;;;;;;1.90;1.80;;;7.40;1.00;;;;;;5047359;28;20206;-79
2021/11/22 09:28:48;;;;;;;2.10;2.00;;;;;;;;;;5050946;28;20191;-79
2021/11/22 09:31:15;;;;;;;1.80;1.70;;;7.30;1.00;;;;;;5049468;28;20590;-79
2021/11/22 09:33:43;;;;;;;1.83;1.73;;;7.30;1.00;;;;;;5051121;28;20194;-79
2021/11/22 09:36:09;;;;;;;1.93;1.83;;;7.40;1.00;;;;;;5051013;28;20887;-79
2021/11/22 09:38:35;;;;;;;2.77;2.40;;;7.60;1.00;;;;;;5055161;28;20199;-78
2021/11/22 09:41:01;;;;;;;2.27;1.97;;;7.70;1.00;;;;;;5047725;28;20198;-78
2021/11/22 09:43:28;;;;;;;1.83;1.70;;;7.80;1.00;;;;;;5046761;28;20222;-79
2021/11/22 09:45:54;;;;;;;1.60;1.50;;;;;;;;;;5041923;28;20191;-78
2021/11/22 09:48:20;;;;;;;97.87;8.13;;;;;;;;;;5049659;28;20194;-78
2021/11/22 09:50:46;;;;;;;1.80;1.70;;;8.00;1.00;;;;;;5044830;28;20567;-78
2021/11/22 09:53:13;;;;;;;2.10;1.90;;;7.90;1.00;;;;;;5052722;28;20231;-79
2021/11/22 09:55:39;;;;;;;1.83;1.70;;;7.90;1.00;;;;;;5047386;28;20198;-78
2021/11/22 09:58:07;;;;;;;1.77;1.67;;;7.80;1.00;;;;;;5049532;28;20258;-78
2021/11/22 10:00:46;;;;;;;2.13;1.93;;;7.80;1.00;;;;;;5040917;28;20191;-78
2021/11/22 10:03:15;;;;;;;1.30;1.30;;;7.70;1.00;;;;;;5047233;28;20215;-78
2021/11/22 10:05:42;;;;;;;1.10;1.10;;;7.70;1.00;;;;;;5053291;28;20247;-78
2021/11/22 10:08:08;;;;;;;1.60;1.50;;;;;;;;;;5045476;28;20217;-78
2021/11/22 10:10:47;;;;;;;1.50;1.40;;;7.80;1.00;;;;;;5058560;28;20187;-78
2021/11/22 10:13:23;;;;;;;1.70;1.60;;;7.70;1.00;;;;;;5044143;28;20226;-78
2021/11/22 10:15:52;;;;;;;1.97;1.67;;;7.70;1.00;;;;;;5060308;28;20190;-78
2021/11/22 10:18:23;;;;;;;1.77;1.67;;;7.60;1.00;;;;;;5047097;28;20677;-78
2021/11/22 10:20:50;;;;;;;1.63;1.53;;;7.60;1.00;;;;;;5053403;28;20190;-78
2021/11/22 10:23:27;;;;;;;1.57;1.47;;;7.50;1.00;;;;;;5051749;28;20226;-78
2021/11/22 10:25:55;;;;;;;2.13;1.90;;;7.60;1.00;;;;;;5055339;28;20297;-78
2021/11/22 10:28:23;;;;;;;2.00;1.83;;;7.60;1.00;;;;;;5051190;28;20213;-78
2021/11/22 10:31:05;;;;;;;2.13;2.03;;;9.50;1.00;;;;;;5047063;28;20215;-79
2021/11/22 10:33:34;;;;;;;1.30;1.30;;;7.60;1.00;;;;;;5046441;28;20225;-79
2021/11/22 10:36:04;;;;;;;1.90;1.80;;;7.70;1.00;;;;;;5031781;28;20206;-79
2021/11/22 10:38:31;;;;;;;2.30;2.10;;;7.70;1.00;;;;;;5047073;28;20197;-79
2021/11/22 10:41:00;;;;;;;1.93;1.83;;;7.70;1.00;;;;;;5046214;28;20664;-79
2021/11/22 10:43:35;;;;;;;1.70;1.47;;;7.60;1.00;;;;;;5050144;28;20207;-79
2021/11/22 10:46:05;;;;;;;1.93;1.70;;;7.60;1.00;;;;;;5046884;28;20182;-79
2021/11/22 10:48:31;;;;;;;1.73;1.47;;;;;;;;;;5045804;28;20190;-79
2021/11/22 10:51:05;;;;;;;1.13;1.10;;;7.60;1.00;;;;;;5050031;28;20333;-79
2021/11/22 10:53:43;;;;;;;1.60;1.50;;;7.50;1.00;;;;;;5043992;28;20556;-78
2021/11/22 10:56:16;;;;;;;3.13;1.50;;;7.50;1.00;;;;;;5054234;28;20206;-79
2021/11/22 10:58:54;;;;;;;1.70;1.60;;;7.60;1.00;;;;;;5046667;28;20276;-79
2021/11/22 11:01:30;;;;;;;1.10;1.10;;;7.70;1.00;;;;;;5040398;28;20195;-79
2021/11/22 11:04:01;;;;;;;1.53;1.43;;;7.70;1.00;;;;;;5048686;28;20289;-78
2021/11/22 11:06:46;;;;;;;1.10;1.10;;;7.60;1.00;;;;;;5048488;28;20201;-79
2021/11/22 11:09:18;;;;;;;1.50;1.40;;;7.60;1.00;;;;;;5057233;28;20588;-79
2021/11/22 11:11:44;;;;;;;1.33;1.23;;;7.70;1.00;;;;;;5052060;28;20203;-79
2021/11/22 11:14:13;;;;;;;2.90;2.17;;;7.70;1.00;;;;;;5042993;28;20186;-79
2021/11/22 11:16:40;;;;;;;1.20;1.10;;;9.00;1.00;;;;;;5055017;28;20186;-79
2021/11/22 11:19:09;;;;;;;1.20;1.20;;;7.80;1.00;;;;;;5048423;28;20547;-79
2021/11/22 11:21:49;;;;;;;1.43;1.33;;;7.90;1.00;;;;;;5039240;28;20187;-79
2021/11/22 11:24:17;;;;;;;1.00;1.00;;;8.00;1.00;;;;;;5047147;28;20183;-79
2021/11/22 11:26:45;;;;;;;1.40;1.30;;;8.20;1.00;;;;;;5043745;28;20210;-79
2021/11/22 11:29:11;;;;;;;1.10;1.10;;;;;;;;;;5051655;28;20203;-79
2021/11/22 11:31:39;;;;;;;1.07;1.07;;;8.70;1.00;;;;;;5049555;28;20186;-79
2021/11/22 11:34:07;;;;;;;0.87;0.87;;;8.90;1.00;;;;;;5050977;28;20190;-79
2021/11/22 11:36:42;;;;;;;1.10;1.10;;;9.10;1.00;;;;;;5048902;28;20239;-77
2021/11/22 11:39:25;;;;;;;0.93;0.93;;;9.20;1.00;;;;;;5045448;28;20218;-78
2021/11/22 11:42:10;;;;;;;0.93;0.93;;;8.70;1.00;;;;;;5046918;28;20200;-78
2021/11/22 11:45:13;;;;;;;1.00;1.00;;;8.70;1.00;;;;;;5052229;28;20185;-78
2021/11/22 11:48:17;;;;;;;12.97;2.87;;;8.30;1.00;;;;;;5046886;28;20170;-78
2021/11/22 11:50:45;;;;;;;0.83;0.83;;;8.40;1.00;;;;;;5047236;28;20189;-78
2021/11/22 11:53:18;;;;;;;0.90;0.90;;;8.30;1.00;;;;;;5056312;28;20201;-78
2021/11/22 11:56:04;;;;;;;0.80;0.80;;;8.40;1.00;;;;;;5053341;28;20186;-78
2021/11/22 11:58:30;;;;;;;2.70;1.00;;;8.30;1.00;;;;;;5046583;28;20194;-78
2021/11/22 12:01:06;;;;;;;1.40;1.10;;;8.20;1.00;;;;;;5044440;28;20225;-78
2021/11/22 12:04:02;;;;;;;0.83;0.83;;;8.20;1.00;;;;;;5049848;28;20206;-78
2021/11/22 12:06:49;;;;;;;0.87;0.80;;;8.20;1.00;;;;;;5047591;28;20218;-78
2021/11/22 12:09:39;;;;;;;0.77;0.77;;;8.10;1.00;;;;;;5049484;28;20225;-78
2021/11/22 12:12:07;;;;;;;1.00;1.00;;;8.10;1.00;;;;;;5053036;28;20213;-78
2021/11/22 12:14:52;;;;;;;0.70;0.70;;;8.10;1.00;;;;;;5051703;28;20211;-78
2021/11/22 12:17:36;;;;;;;1.00;1.00;;;8.10;1.00;;;;;;5054236;28;20198;-78
2021/11/22 12:20:21;;;;;;;1.37;0.90;;;8.10;1.00;;;;;;5053221;28;20191;-78
2021/11/22 12:22:54;;;;;;;0.80;0.80;;;8.20;1.00;;;;;;5053721;28;20242;-78
2021/11/22 12:25:43;;;;;;;1.20;1.10;;;8.30;1.00;;;;;;5048981;28;20669;-78
2021/11/22 12:28:18;;;;;;;0.97;0.97;;;8.30;1.00;;;;;;5039086;28;20194;-78
2021/11/22 12:30:46;;;;;;;1.30;1.13;;;8.20;1.00;;;;;;5042396;28;20236;-78
2021/11/22 12:33:21;;;;;;;0.70;0.70;;;8.40;1.00;;;;;;5048433;28;20218;-78
2021/11/22 12:35:49;;;;;;;28.97;3.83;;;8.60;1.00;;;;;;5043261;28;20181;-79
2021/11/22 12:38:23;;;;;;;0.70;0.70;;;9.10;1.00;;;;;;5056574;28;20544;-78
2021/11/22 12:40:53;;;;;;;0.50;0.50;;;9.10;1.00;;;;;;5048280;28;20674;-79
2021/11/22 12:43:39;;;;;;;0.60;0.60;;;8.90;1.00;;;;;;5046107;28;20217;-79
2021/11/22 12:46:07;;;;;;;0.70;0.70;;;8.70;1.00;;;;;;5051307;28;20191;-78
2021/11/22 12:48:42;;;;;;;1.80;0.97;;;8.90;1.00;;;;;;5046041;28;20203;-78
2021/11/22 12:51:17;;;;;;;0.60;0.60;;;8.90;1.00;;;;;;5041069;28;20292;-78
2021/11/22 12:54:01;;;;;;;117.83;7.73;;;8.90;1.00;;;;;;5047746;28;20198;-78
2021/11/22 12:56:29;;;;;;;1.10;1.00;;;8.30;1.00;;;;;;5046232;28;20202;-78
2021/11/22 12:59:16;;;;;;;0.80;0.80;;;8.30;1.00;;;;;;5044178;28;20199;-78
2021/11/22 13:01:43;;;;;;;0.77;0.77;;;8.30;1.00;;;;;;5058579;28;20265;-79
2021/11/22 13:04:08;;;;;;;0.60;0.60;;;8.30;1.00;;;;;;5048110;28;20238;-78
2021/11/22 13:06:38;;;;;;;1.30;0.90;;;8.40;1.00;;;;;;5045461;28;20198;-78
2021/11/22 13:09:10;;;;;;;0.90;0.90;;;8.50;1.00;;;;;;5048895;28;20259;-79
2021/11/22 13:11:45;;;;;;;0.80;0.80;;;8.40;1.00;;;;;;5044447;28;20210;-78
2021/11/22 13:14:16;;;;;;;0.70;0.70;;;8.40;1.00;;;;;;5043397;28;20606;-78
2021/11/22 13:16:42;;;;;;;1.10;0.90;;;8.30;1.00;;;;;;5056135;28;20747;-78
2021/11/22 13:19:11;;;;;;;0.73;0.73;;;8.30;1.00;;;;;;5050123;28;20201;-78
2021/11/22 13:21:55;;;;;;;0.67;0.67;;;8.30;1.00;;;;;;5051378;28;20198;-78
2021/11/22 13:24:30;;;;;;;0.60;0.60;;;8.20;1.00;;;;;;5034952;28;20427;-78
2021/11/22 13:26:59;;;;;;;0.90;0.90;;;8.10;1.00;;;;;;5052558;28;20339;-79